Kirkland, Texas
Current Conditions -  °F | °C
As of 11:53 PM on Friday 28 Nov 2014 (Local Time) from KCDS Reporting Station
Clear Clear  
Wind Chill: 60°   Ceiling: Unl
Heat Index: 60°   Visibility: 10mi
Dew Point: 25°   Wind: 16mph
Humidity: 26%   Direction: 220°SW
Pressure: 29.82"   Gusts: NA
Location:  34.38°N, 100.06°W
Report Text: KCDS 290553Z AUTO 22014KT 10SM CLR 16/M04 A2982 RMK AO2 SLP080 T01561039 10211 20144 402780011 58007
Loading
Personal Weather Stations






























Interactive Weather Map New forecast layout! Learn more

10-Day Weather Forecast

Advertisements
Track Severe Weather on mobile